Time;durP1;ratioP1;P1;durP2;ratioP2;P2;SDS_P1;SDS_P2;PMS_P1;PMS_P2;Temp;Humidity;BMP_temperature;BMP_pressure;BME280_temperature;BME280_humidity;BME280_pressure;Samples;Min_cycle;Max_cycle;Signal;HPM_P1;HPM_P2
2022/03/14 00:02:23;;;;;;;13.25;10.75;;;9.40;75.70;;;;;;5065728;28;20040;-67
2022/03/14 00:04:49;;;;;;;11.15;9.80;;;9.30;76.40;;;;;;5067227;28;20043;-67
2022/03/14 00:07:15;;;;;;;15.00;10.00;;;9.40;77.40;;;;;;5065767;28;20044;-67
2022/03/14 00:09:40;;;;;;;11.55;9.43;;;9.40;77.70;;;;;;5064558;28;20059;-67
2022/03/14 00:12:08;;;;;;;11.05;9.15;;;9.40;78.60;;;;;;5065814;28;20085;-68
2022/03/14 00:14:34;;;;;;;14.15;8.95;;;9.40;80.10;;;;;;5064388;28;20445;-67
2022/03/14 00:17:06;;;;;;;12.05;9.02;;;9.40;81.20;;;;;;5063194;28;20048;-67
2022/03/14 00:19:32;;;;;;;14.05;8.88;;;9.50;82.80;;;;;;5066689;28;20091;-67
2022/03/14 00:21:59;;;;;;;13.32;9.35;;;9.50;84.20;;;;;;5062482;28;20048;-67
2022/03/14 00:24:25;;;;;;;15.95;8.50;;;9.50;83.90;;;;;;5065431;28;20040;-67
2022/03/14 00:26:52;;;;;;;13.38;9.02;;;9.60;85.00;;;;;;5065371;28;20032;-67
2022/03/14 00:29:19;;;;;;;11.55;8.77;;;9.50;84.90;;;;;;5062338;28;20048;-67
2022/03/14 00:31:44;;;;;;;9.27;7.63;;;9.60;85.50;;;;;;5066867;28;20040;-67
2022/03/14 00:34:10;;;;;;;8.57;7.55;;;9.70;86.50;;;;;;5064928;28;20484;-67
2022/03/14 00:36:35;;;;;;;10.27;8.27;;;9.60;87.20;;;;;;5063388;28;20037;-67
2022/03/14 00:39:01;;;;;;;10.15;7.80;;;9.60;88.10;;;;;;5062994;28;20471;-67
2022/03/14 00:41:27;;;;;;;10.23;7.28;;;9.70;88.60;;;;;;5065405;28;20036;-67
2022/03/14 00:43:52;;;;;;;9.38;6.47;;;9.70;89.50;;;;;;5062673;28;20040;-67
2022/03/14 00:46:18;;;;;;;9.63;6.75;;;9.70;90.30;;;;;;5065743;28;20037;-67
2022/03/14 00:48:45;;;;;;;8.50;6.22;;;9.80;90.60;;;;;;5065386;28;20028;-67
2022/03/14 00:51:11;;;;;;;8.10;6.93;;;9.70;90.90;;;;;;5067988;28;20093;-68
2022/03/14 00:53:37;;;;;;;9.93;6.07;;;9.80;91.40;;;;;;5069110;28;20036;-67
2022/03/14 00:56:03;;;;;;;6.10;5.50;;;9.80;91.50;;;;;;5065596;28;20636;-67
2022/03/14 00:58:29;;;;;;;6.75;6.03;;;9.80;92.20;;;;;;5063805;28;20132;-67
2022/03/14 01:00:55;;;;;;;7.15;5.93;;;9.80;92.70;;;;;;5065023;28;20123;-67
2022/03/14 01:03:21;;;;;;;5.53;5.03;;;9.80;93.10;;;;;;5062838;28;20046;-67
2022/03/14 01:05:46;;;;;;;6.43;4.95;;;9.80;93.60;;;;;;5065392;28;20044;-67
2022/03/14 01:08:12;;;;;;;6.70;5.13;;;9.80;93.70;;;;;;5062409;28;20067;-67
2022/03/14 01:10:38;;;;;;;8.32;5.38;;;9.90;94.00;;;;;;5050126;28;20074;-67
2022/03/14 01:13:04;;;;;;;7.05;5.28;;;9.90;94.50;;;;;;5065779;28;20048;-67
2022/03/14 01:15:32;;;;;;;6.80;5.10;;;9.90;94.80;;;;;;5065282;28;20167;-67
2022/03/14 01:17:58;;;;;;;6.63;5.15;;;9.90;94.80;;;;;;5062374;28;20029;-67
2022/03/14 01:20:25;;;;;;;5.88;5.28;;;9.90;94.40;;;;;;5051579;28;20048;-67
2022/03/14 01:22:54;;;;;;;8.57;6.18;;;9.90;94.80;;;;;;5065548;28;20055;-67
2022/03/14 01:25:20;;;;;;;7.90;5.55;;;9.90;95.60;;;;;;5064439;28;20103;-67
2022/03/14 01:27:46;;;;;;;7.13;5.38;;;9.90;95.70;;;;;;5063866;28;20044;-67
2022/03/14 01:30:14;;;;;;;6.20;5.18;;;9.90;95.90;;;;;;5067483;28;20406;-67
2022/03/14 01:32:40;;;;;;;5.57;4.80;;;9.90;96.20;;;;;;5065903;28;20049;-67
2022/03/14 01:35:06;;;;;;;7.30;4.50;;;9.90;97.10;;;;;;5062125;28;20047;-67
2022/03/14 01:37:32;;;;;;;5.78;4.40;;;9.90;97.60;;;;;;5054405;28;20044;-67
2022/03/14 01:39:58;;;;;;;4.60;4.18;;;9.90;98.60;;;;;;5061561;28;20048;-67
2022/03/14 01:42:23;;;;;;;4.53;4.13;;;9.90;98.90;;;;;;5066827;28;20497;-67
2022/03/14 01:44:49;;;;;;;4.57;4.18;;;9.80;99.30;;;;;;5064620;28;20479;-67
2022/03/14 01:47:15;;;;;;;5.57;4.70;;;9.80;99.90;;;;;;5069118;28;20494;-67
2022/03/14 01:49:44;;;;;;;3.97;3.47;;;9.90;99.90;;;;;;5065594;28;20060;-67
2022/03/14 01:52:11;;;;;;;4.85;3.70;;;9.90;99.90;;;;;;5067117;28;20048;-67
2022/03/14 01:54:38;;;;;;;4.47;4.07;;;9.90;99.90;;;;;;5066057;28;20483;-67
2022/03/14 01:57:05;;;;;;;4.57;3.58;;;9.90;99.90;;;;;;5064722;28;20044;-67
2022/03/14 01:59:31;;;;;;;6.07;3.67;;;9.90;99.90;;;;;;5063823;28;20459;-67
2022/03/14 02:01:57;;;;;;;4.00;3.60;;;9.90;99.90;;;;;;5066761;28;20052;-67
2022/03/14 02:04:23;;;;;;;4.10;3.10;;;9.90;99.90;;;;;;5066509;28;20032;-67
2022/03/14 02:06:53;;;;;;;4.38;3.97;;;9.90;99.90;;;;;;5065346;28;20044;-67
2022/03/14 02:09:19;;;;;;;3.75;3.10;;;9.90;99.90;;;;;;5069458;28;20094;-68
2022/03/14 02:11:57;;;;;;;3.92;3.28;;;9.90;99.90;;;;;;5069372;28;21468;-67
2022/03/14 02:14:24;;;;;;;9.45;2.95;;;9.90;99.90;;;;;;5071210;28;20060;-67
2022/03/14 02:16:51;;;;;;;3.75;3.00;;;10.00;99.90;;;;;;5071406;28;20051;-68
2022/03/14 02:19:18;;;;;;;3.95;3.55;;;10.00;99.90;;;;;;5070556;28;20055;-67
2022/03/14 02:21:44;;;;;;;6.63;3.28;;;10.00;99.90;;;;;;5068271;28;20044;-67
2022/03/14 02:24:09;;;;;;;6.22;3.58;;;10.00;99.90;;;;;;5067330;28;20051;-67
2022/03/14 02:26:39;;;;;;;3.35;3.05;;;10.00;99.90;;;;;;5069801;28;20402;-67
2022/03/14 02:29:06;;;;;;;5.97;3.20;;;10.10;99.90;;;;;;5099804;28;20513;-67
2022/03/14 02:31:36;;;;;;;3.33;3.03;;;10.00;99.90;;;;;;5069729;28;20048;-67
2022/03/14 02:34:03;;;;;;;3.83;3.47;;;10.00;99.90;;;;;;5069746;28;20043;-66
2022/03/14 02:36:28;;;;;;;3.78;2.80;;;10.00;99.90;;;;;;5068413;28;20036;-67
2022/03/14 02:38:54;;;;;;;5.45;3.17;;;10.00;99.90;;;;;;5073311;28;20058;-67
2022/03/14 02:41:22;;;;;;;3.28;2.97;;;10.00;99.90;;;;;;5065456;28;20057;-67
2022/03/14 02:43:48;;;;;;;3.17;2.88;;;10.00;99.90;;;;;;5071877;28;20044;-67
2022/03/14 02:46:14;;;;;;;3.42;3.13;;;10.00;99.90;;;;;;5072302;28;20509;-67
2022/03/14 02:48:40;;;;;;;3.47;3.17;;;10.00;99.90;;;;;;5067900;28;20045;-67
2022/03/14 02:51:05;;;;;;;3.03;2.53;;;10.00;99.90;;;;;;5069007;28;20052;-67
2022/03/14 02:53:31;;;;;;;4.30;2.75;;;10.00;99.90;;;;;;5051802;28;20475;-67
2022/03/14 02:55:57;;;;;;;3.40;3.10;;;10.00;99.90;;;;;;5071409;28;20393;-67
2022/03/14 02:58:22;;;;;;;2.97;2.67;;;10.00;99.90;;;;;;5068743;28;20059;-67
2022/03/14 03:00:51;;;;;;;2.67;2.47;;;10.00;99.90;;;;;;5071620;28;20494;-67
2022/03/14 03:03:17;;;;;;;3.40;3.10;;;10.00;99.90;;;;;;5069150;28;20578;-67
2022/03/14 03:05:43;;;;;;;6.50;2.90;;;10.00;99.90;;;;;;5070344;28;20052;-67
2022/03/14 03:08:10;;;;;;;3.65;2.75;;;10.00;99.90;;;;;;5070486;28;20398;-67
2022/03/14 03:10:36;;;;;;;2.67;2.47;;;9.90;99.90;;;;;;5097250;27;20499;-67
2022/03/14 03:13:03;;;;;;;3.70;3.17;;;10.00;99.90;;;;;;5069459;28;20128;-67
2022/03/14 03:15:29;;;;;;;3.58;2.85;;;10.00;99.90;;;;;;5068469;28;20529;-67
2022/03/14 03:17:54;;;;;;;2.80;2.38;;;10.00;99.90;;;;;;5073725;28;20048;-68
2022/03/14 03:20:20;;;;;;;4.25;2.30;;;10.00;99.90;;;;;;5068399;28;20044;-67
2022/03/14 03:22:46;;;;;;;2.20;2.00;;;10.10;99.90;;;;;;5070466;28;20127;-67
2022/03/14 03:25:12;;;;;;;2.97;2.50;;;10.10;99.90;;;;;;5052723;28;20085;-67
2022/03/14 03:27:38;;;;;;;2.55;2.35;;;10.10;99.90;;;;;;5097490;27;20055;-67
2022/03/14 03:30:05;;;;;;;2.72;2.00;;;10.10;99.90;;;;;;5066845;28;20044;-67
2022/03/14 03:32:30;;;;;;;1.92;1.77;;;10.10;99.90;;;;;;5067969;28;20054;-67
2022/03/14 03:34:56;;;;;;;6.50;2.97;;;10.10;99.90;;;;;;5068874;28;20055;-67
2022/03/14 03:37:22;;;;;;;4.20;1.92;;;10.10;99.90;;;;;;5069325;28;20063;-67
2022/03/14 03:39:47;;;;;;;2.72;2.47;;;10.10;99.90;;;;;;5068791;28;20040;-67
2022/03/14 03:42:13;;;;;;;2.55;1.80;;;10.10;99.90;;;;;;5067069;28;20124;-67
2022/03/14 03:44:39;;;;;;;4.40;2.40;;;10.00;99.90;;;;;;5065059;28;20433;-67
2022/03/14 03:47:04;;;;;;;4.00;2.20;;;10.00;99.90;;;;;;5067718;28;20371;-67
2022/03/14 03:49:31;;;;;;;2.97;2.28;;;10.10;99.90;;;;;;5066734;28;20089;-67
2022/03/14 03:51:56;;;;;;;2.83;2.60;;;10.00;99.90;;;;;;5067153;28;20093;-67
2022/03/14 03:54:22;;;;;;;8.98;2.17;;;10.00;99.90;;;;;;5068725;28;20466;-67
2022/03/14 03:56:48;;;;;;;9.55;2.83;;;10.00;99.90;;;;;;5066218;28;20115;-67
2022/03/14 03:59:14;;;;;;;6.18;2.65;;;10.00;99.90;;;;;;5067486;28;20080;-67
2022/03/14 04:01:41;;;;;;;9.57;2.47;;;10.00;99.90;;;;;;5064997;28;20036;-67
2022/03/14 04:04:07;;;;;;;6.75;2.45;;;10.00;99.90;;;;;;5066595;28;20075;-67
2022/03/14 04:06:34;;;;;;;2.95;2.60;;;10.00;99.90;;;;;;5064921;28;20072;-67
2022/03/14 04:09:01;;;;;;;9.60;3.00;;;9.90;99.90;;;;;;5065258;28;20046;-67
2022/03/14 04:11:27;;;;;;;4.68;2.10;;;9.90;99.90;;;;;;5067994;28;20393;-67
2022/03/14 04:13:58;;;;;;;2.45;2.22;;;10.00;99.90;;;;;;5067054;28;20029;-67
2022/03/14 04:16:26;;;;;;;2.65;2.42;;;10.00;99.90;;;;;;5066781;28;20036;-67
2022/03/14 04:18:53;;;;;;;2.35;1.83;;;9.90;99.90;;;;;;5066266;28;20033;-67
2022/03/14 04:21:20;;;;;;;2.75;2.10;;;9.90;99.90;;;;;;5068034;28;20036;-67
2022/03/14 04:23:46;;;;;;;5.18;2.17;;;9.90;99.90;;;;;;5061943;28;20044;-67
2022/03/14 04:26:11;;;;;;;5.40;2.25;;;9.90;99.90;;;;;;5068556;28;20414;-67
2022/03/14 04:28:39;;;;;;;5.22;2.10;;;9.80;99.90;;;;;;5065289;28;20041;-67
2022/03/14 04:31:05;;;;;;;5.57;1.67;;;9.80;99.90;;;;;;5066644;28;20466;-67
2022/03/14 04:33:32;;;;;;;2.72;2.10;;;9.80;99.90;;;;;;5077078;28;20068;-67
2022/03/14 04:35:57;;;;;;;2.75;1.75;;;9.80;99.90;;;;;;5066030;28;20048;-67
2022/03/14 04:38:35;;;;;;;3.20;1.67;;;9.80;99.90;;;;;;5065114;28;20632;-67
2022/03/14 04:41:01;;;;;;;1.90;1.60;;;9.80;99.90;;;;;;5067348;28;20518;-67
2022/03/14 04:43:26;;;;;;;1.92;1.60;;;9.80;99.90;;;;;;5065853;28;20045;-67
2022/03/14 04:45:52;;;;;;;1.80;1.55;;;9.90;99.90;;;;;;5065952;28;20044;-67
2022/03/14 04:48:18;;;;;;;1.85;1.73;;;9.90;99.90;;;;;;5066035;28;20040;-67
2022/03/14 04:50:44;;;;;;;1.90;1.60;;;9.90;99.90;;;;;;5064127;28;20048;-67
2022/03/14 04:53:10;;;;;;;2.13;1.83;;;9.90;99.90;;;;;;5067127;28;20478;-67
2022/03/14 04:55:36;;;;;;;2.25;1.90;;;9.90;99.90;;;;;;5096371;28;20040;-67
2022/03/14 04:58:03;;;;;;;2.05;1.55;;;9.90;99.90;;;;;;5066493;28;20058;-66
2022/03/14 05:00:29;;;;;;;3.72;1.65;;;9.90;99.90;;;;;;5065729;28;20032;-67
2022/03/14 05:03:05;;;;;;;4.05;1.38;;;9.90;99.90;;;;;;5066544;28;20036;-67
2022/03/14 05:05:31;;;;;;;9.38;1.88;;;9.90;99.90;;;;;;5066511;28;20391;-67
2022/03/14 05:07:57;;;;;;;3.67;1.88;;;9.90;99.90;;;;;;5068218;28;20044;-67
2022/03/14 05:10:23;;;;;;;4.97;1.90;;;9.90;99.90;;;;;;5067319;28;20043;-67
2022/03/14 05:12:49;;;;;;;2.05;1.80;;;9.90;99.90;;;;;;5068528;28;20053;-67
2022/03/14 05:15:16;;;;;;;1.95;1.83;;;9.90;99.90;;;;;;5064894;28;20049;-67
2022/03/14 05:17:43;;;;;;;2.45;2.20;;;9.90;99.90;;;;;;5065414;28;20057;-67
2022/03/14 05:20:09;;;;;;;2.40;2.00;;;9.90;99.90;;;;;;5066138;28;20072;-67
2022/03/14 05:22:48;;;;;;;2.20;1.80;;;9.90;99.90;;;;;;5067205;28;20115;-67
2022/03/14 05:25:14;;;;;;;2.47;2.08;;;9.90;99.90;;;;;;5068201;28;20044;-67
2022/03/14 05:27:40;;;;;;;2.13;1.90;;;9.90;99.90;;;;;;5067543;28;20030;-67
2022/03/14 05:30:08;;;;;;;1.88;1.77;;;9.90;99.90;;;;;;5066398;28;20089;-67
2022/03/14 05:32:34;;;;;;;7.15;2.50;;;9.90;99.90;;;;;;5067676;28;20498;-67
2022/03/14 05:35:00;;;;;;;2.80;2.20;;;9.90;99.90;;;;;;5065247;28;20044;-67
2022/03/14 05:37:25;;;;;;;4.40;2.10;;;9.90;99.90;;;;;;5069338;28;20608;-67
2022/03/14 05:39:51;;;;;;;4.68;2.08;;;10.00;99.90;;;;;;5096934;28;20032;-67
2022/03/14 05:42:17;;;;;;;4.70;3.20;;;9.90;99.90;;;;;;5075085;28;20032;-67
2022/03/14 05:44:45;;;;;;;4.00;2.03;;;9.90;99.90;;;;;;5069657;28;20041;-67
2022/03/14 05:47:11;;;;;;;2.70;2.50;;;9.90;99.90;;;;;;5069137;28;20036;-67
2022/03/14 05:49:37;;;;;;;3.15;2.45;;;9.80;99.90;;;;;;5063986;28;20425;-67
2022/03/14 05:52:05;;;;;;;5.75;2.13;;;9.80;99.90;;;;;;5068181;28;20045;-67
2022/03/14 05:54:31;;;;;;;3.88;2.45;;;9.80;99.90;;;;;;5065356;28;20052;-67
2022/03/14 05:56:57;;;;;;;4.95;2.25;;;9.70;99.90;;;;;;5068708;28;20075;-67
2022/03/14 05:59:22;;;;;;;3.75;2.38;;;9.80;99.90;;;;;;5068444;28;20040;-67
2022/03/14 06:01:50;;;;;;;3.92;2.53;;;9.80;99.90;;;;;;5065703;28;20040;-67
2022/03/14 06:04:16;;;;;;;2.70;2.50;;;9.80;99.90;;;;;;5068304;28;20048;-67
2022/03/14 06:06:42;;;;;;;2.70;2.50;;;9.70;99.90;;;;;;5074238;28;20036;-67
2022/03/14 06:09:08;;;;;;;3.78;2.70;;;9.70;99.90;;;;;;5065977;28;20043;-67
2022/03/14 06:11:34;;;;;;;3.63;2.85;;;9.70;99.90;;;;;;5067879;28;20036;-67
2022/03/14 06:14:00;;;;;;;2.83;2.63;;;9.70;99.90;;;;;;5066405;28;20053;-67
2022/03/14 06:16:25;;;;;;;4.82;2.28;;;9.70;99.90;;;;;;5082239;28;20589;-67
2022/03/14 06:18:51;;;;;;;3.25;2.47;;;9.70;99.90;;;;;;5066225;28;20036;-67
2022/03/14 06:21:17;;;;;;;2.63;2.42;;;9.70;99.90;;;;;;5070331;28;20524;-67
2022/03/14 06:23:43;;;;;;;2.67;2.47;;;9.60;99.90;;;;;;5067495;28;20490;-68
2022/03/14 06:26:09;;;;;;;4.10;2.60;;;9.60;99.90;;;;;;5066963;28;20037;-68
2022/03/14 06:28:34;;;;;;;6.03;2.75;;;9.60;99.90;;;;;;5065225;28;20040;-68
2022/03/14 06:31:00;;;;;;;3.22;2.65;;;9.60;99.90;;;;;;5069541;28;20125;-67
2022/03/14 06:33:26;;;;;;;2.78;2.58;;;9.50;99.90;;;;;;5067022;28;20047;-67
2022/03/14 06:35:51;;;;;;;4.10;3.00;;;9.60;99.90;;;;;;5067454;28;20054;-67
2022/03/14 06:38:17;;;;;;;4.90;2.95;;;9.50;99.90;;;;;;5069063;28;20044;-67
2022/03/14 06:40:43;;;;;;;3.15;2.85;;;9.50;99.90;;;;;;5064502;28;20037;-67
2022/03/14 06:43:13;;;;;;;3.40;3.03;;;9.50;99.90;;;;;;5067935;28;20040;-68
2022/03/14 06:45:40;;;;;;;3.33;2.88;;;9.50;99.90;;;;;;5066339;28;20048;-68
2022/03/14 06:48:06;;;;;;;3.45;2.85;;;9.50;99.90;;;;;;5065539;28;20106;-68
2022/03/14 06:50:34;;;;;;;4.15;3.03;;;9.50;99.90;;;;;;5064773;28;20071;-68
2022/03/14 06:52:59;;;;;;;3.03;2.50;;;9.40;99.90;;;;;;5065076;28;20113;-68
2022/03/14 06:55:26;;;;;;;3.50;3.05;;;9.50;99.90;;;;;;5067130;28;20056;-68
2022/03/14 06:57:51;;;;;;;5.50;2.88;;;9.40;99.90;;;;;;5068902;28;20099;-68
2022/03/14 07:00:17;;;;;;;3.55;3.25;;;9.40;99.90;;;;;;5066835;28;20813;-68
2022/03/14 07:02:43;;;;;;;3.55;3.25;;;9.50;99.90;;;;;;5064752;28;20037;-68
2022/03/14 07:05:13;;;;;;;3.55;3.25;;;9.50;99.90;;;;;;5068050;28;20089;-68
2022/03/14 07:07:40;;;;;;;3.25;2.90;;;9.50;99.90;;;;;;5063560;28;20115;-68
2022/03/14 07:10:06;;;;;;;5.03;3.28;;;9.50;99.90;;;;;;5067482;28;20033;-68
2022/03/14 07:12:36;;;;;;;3.63;3.00;;;9.50;99.90;;;;;;5060438;28;20045;-68
2022/03/14 07:15:01;;;;;;;2.95;2.75;;;9.50;99.90;;;;;;5068307;28;20041;-68
2022/03/14 07:17:27;;;;;;;3.80;3.25;;;9.50;99.90;;;;;;5069973;28;20109;-68
2022/03/14 07:19:52;;;;;;;3.20;2.90;;;9.50;99.90;;;;;;5067662;28;20043;-68
2022/03/14 07:22:19;;;;;;;4.28;3.65;;;9.50;99.90;;;;;;5067989;28;20193;-68
2022/03/14 07:24:47;;;;;;;3.97;3.28;;;9.60;99.90;;;;;;5068357;28;20053;-68
2022/03/14 07:27:13;;;;;;;3.35;3.05;;;9.60;99.90;;;;;;5066371;28;20119;-68
2022/03/14 07:29:39;;;;;;;3.60;3.30;;;9.60;99.90;;;;;;5067345;28;20051;-68
2022/03/14 07:32:05;;;;;;;3.75;3.30;;;9.60;99.90;;;;;;5064906;28;20406;-68
2022/03/14 07:34:31;;;;;;;4.78;3.42;;;9.60;99.90;;;;;;5066349;28;20043;-68
2022/03/14 07:36:57;;;;;;;3.42;3.05;;;9.60;99.90;;;;;;5065724;28;20048;-68
2022/03/14 07:39:23;;;;;;;4.05;3.65;;;9.60;99.90;;;;;;5066326;28;20047;-68
2022/03/14 07:41:48;;;;;;;6.65;3.58;;;9.70;99.90;;;;;;5068910;28;20059;-68
2022/03/14 07:44:14;;;;;;;3.85;3.55;;;9.70;99.90;;;;;;5068067;28;21304;-68
2022/03/14 07:46:40;;;;;;;3.47;3.17;;;9.70;99.90;;;;;;5065099;28;20133;-68
2022/03/14 07:49:05;;;;;;;4.60;3.78;;;9.70;99.90;;;;;;5063716;28;20184;-68
2022/03/14 07:51:32;;;;;;;4.00;3.47;;;9.80;99.90;;;;;;5051453;28;20044;-68
2022/03/14 07:53:58;;;;;;;5.20;4.05;;;9.80;99.90;;;;;;5054876;28;21713;-68
2022/03/14 07:56:23;;;;;;;5.60;3.65;;;9.70;99.90;;;;;;5057282;28;20123;-68
2022/03/14 07:58:49;;;;;;;4.30;3.90;;;9.80;99.90;;;;;;5068502;28;20461;-68
2022/03/14 08:01:17;;;;;;;3.70;3.40;;;9.80;99.90;;;;;;5064484;28;20071;-68
2022/03/14 08:03:45;;;;;;;4.43;4.03;;;9.80;99.90;;;;;;5064328;28;20139;-68
2022/03/14 08:06:11;;;;;;;4.63;4.15;;;9.80;99.90;;;;;;5063486;28;20092;-68
2022/03/14 08:08:37;;;;;;;4.18;3.78;;;9.90;99.90;;;;;;5065945;28;20090;-67
2022/03/14 08:11:04;;;;;;;4.18;3.88;;;9.80;99.90;;;;;;5065345;28;20052;-68
2022/03/14 08:13:31;;;;;;;4.53;4.13;;;9.80;99.90;;;;;;5066275;28;20036;-68
2022/03/14 08:15:57;;;;;;;4.55;4.15;;;9.90;99.90;;;;;;5063815;28;20049;-68
2022/03/14 08:18:23;;;;;;;4.32;3.95;;;9.80;99.90;;;;;;5064398;28;20051;-68
2022/03/14 08:20:53;;;;;;;5.82;4.55;;;9.80;99.90;;;;;;5064654;28;20044;-68
2022/03/14 08:23:19;;;;;;;5.22;4.55;;;9.80;99.90;;;;;;5067921;28;20094;-68
2022/03/14 08:25:46;;;;;;;4.82;4.18;;;9.80;99.90;;;;;;5064304;28;20429;-68
2022/03/14 08:28:12;;;;;;;5.10;4.70;;;9.80;99.90;;;;;;5063445;28;20055;-68
2022/03/14 08:30:39;;;;;;;4.57;4.18;;;9.80;99.90;;;;;;5063077;28;20523;-68
2022/03/14 08:33:06;;;;;;;5.93;5.35;;;9.80;99.90;;;;;;5064258;28;20094;-68
2022/03/14 08:35:31;;;;;;;6.75;4.40;;;9.80;99.90;;;;;;5065075;28;20036;-68
2022/03/14 08:37:57;;;;;;;5.05;4.65;;;9.80;99.90;;;;;;5064259;28;20063;-68
2022/03/14 08:40:24;;;;;;;4.95;4.55;;;9.80;99.90;;;;;;5066893;28;20076;-68
2022/03/14 08:42:53;;;;;;;5.68;5.18;;;9.80;99.90;;;;;;5063882;28;20383;-68
2022/03/14 08:45:19;;;;;;;6.72;4.65;;;9.80;99.90;;;;;;5065865;28;20090;-68
2022/03/14 08:47:45;;;;;;;5.82;5.22;;;9.90;99.90;;;;;;5064189;28;20052;-68
2022/03/14 08:50:13;;;;;;;5.57;5.05;;;9.80;99.90;;;;;;5065390;28;20048;-68
2022/03/14 08:52:39;;;;;;;5.97;5.47;;;9.90;99.90;;;;;;5065200;28;20115;-68
2022/03/14 08:55:05;;;;;;;7.00;6.38;;;9.80;99.90;;;;;;5065650;28;20046;-68
2022/03/14 08:57:34;;;;;;;10.63;9.63;;;9.80;99.90;;;;;;5066132;28;20421;-68
2022/03/14 09:00:00;;;;;;;11.02;10.00;;;9.80;99.90;;;;;;5063617;28;20039;-68
2022/03/14 09:02:26;;;;;;;11.75;10.60;;;9.80;99.90;;;;;;5064910;28;20047;-68
2022/03/14 09:04:52;;;;;;;12.45;11.27;;;9.80;99.90;;;;;;5064865;28;20159;-68
2022/03/14 09:07:29;;;;;;;15.40;12.60;;;9.70;99.90;;;;;;5057726;28;20162;-68
2022/03/14 09:10:01;;;;;;;13.95;12.65;;;9.70;99.90;;;;;;5061723;28;20044;-68
2022/03/14 09:12:27;;;;;;;14.35;12.95;;;9.70;99.90;;;;;;5064473;28;20140;-69
2022/03/14 09:14:52;;;;;;;15.13;13.52;;;9.70;99.90;;;;;;5065116;28;20481;-68
2022/03/14 09:17:18;;;;;;;15.20;13.70;;;9.70;99.90;;;;;;5067089;28;20721;-68
2022/03/14 09:19:44;;;;;;;17.25;15.52;;;9.60;99.90;;;;;;5070426;28;20510;-68
2022/03/14 09:22:10;;;;;;;17.10;15.30;;;9.60;99.90;;;;;;5093688;28;20074;-68
2022/03/14 09:24:37;;;;;;;17.73;15.85;;;9.60;99.90;;;;;;5068559;28;20127;-68
2022/03/14 09:27:06;;;;;;;18.38;16.45;;;9.60;99.90;;;;;;5067496;28;20032;-68
2022/03/14 09:29:32;;;;;;;19.13;17.15;;;9.60;99.90;;;;;;5069304;28;20470;-68
2022/03/14 09:31:58;;;;;;;18.40;16.50;;;9.60;99.90;;;;;;5066007;28;20054;-68
2022/03/14 09:34:24;;;;;;;18.38;16.13;;;9.60;99.90;;;;;;5069820;28;20028;-68
2022/03/14 09:36:50;;;;;;;19.35;17.25;;;9.60;99.90;;;;;;5067932;28;20050;-68
2022/03/14 09:39:16;;;;;;;18.75;16.80;;;9.60;99.90;;;;;;5069722;28;20077;-68
2022/03/14 09:41:42;;;;;;;17.80;15.95;;;9.70;99.90;;;;;;5069403;28;20436;-69
2022/03/14 09:44:15;;;;;;;20.27;17.25;;;9.70;99.90;;;;;;5066962;28;20050;-68
2022/03/14 09:46:44;;;;;;;17.88;15.32;;;9.80;99.90;;;;;;5067223;28;20127;-68
2022/03/14 09:49:14;;;;;;;16.73;15.02;;;9.80;99.90;;;;;;5067568;28;20041;-68
2022/03/14 09:51:42;;;;;;;17.13;15.30;;;9.80;99.90;;;;;;5066293;28;20044;-68
2022/03/14 09:54:09;;;;;;;17.05;15.35;;;9.80;99.90;;;;;;5068535;28;20161;-68
2022/03/14 09:56:37;;;;;;;15.55;13.90;;;9.80;99.90;;;;;;5067917;28;20041;-68
2022/03/14 09:59:04;;;;;;;17.50;13.57;;;9.90;99.90;;;;;;5069123;28;20076;-68
2022/03/14 10:01:30;;;;;;;15.13;12.27;;;9.90;99.90;;;;;;5093106;28;20517;-68
2022/03/14 10:03:56;;;;;;;14.63;12.75;;;9.90;99.90;;;;;;5065651;28;20036;-68
2022/03/14 10:06:22;;;;;;;13.88;12.23;;;9.90;99.90;;;;;;5070294;28;20041;-68
2022/03/14 10:08:48;;;;;;;14.55;12.50;;;10.00;99.90;;;;;;5069586;28;20043;-68
2022/03/14 10:11:14;;;;;;;17.90;12.55;;;10.00;99.90;;;;;;5068363;28;20044;-68
2022/03/14 10:13:40;;;;;;;13.27;11.23;;;10.00;99.90;;;;;;5067775;28;20047;-68
2022/03/14 10:16:12;;;;;;;15.52;11.82;;;10.00;99.90;;;;;;5070194;28;20052;-68
2022/03/14 10:19:01;;;;;;;14.57;10.63;;;10.10;99.90;;;;;;5069728;28;20045;-69
2022/03/14 10:21:39;;;;;;;15.40;11.00;;;10.10;99.90;;;;;;5069121;28;20470;-69
2022/03/14 10:24:06;;;;;;;14.00;10.98;;;10.10;99.90;;;;;;5094872;28;20135;-68
2022/03/14 10:26:33;;;;;;;19.52;11.20;;;10.10;99.90;;;;;;5053331;28;20040;-68
2022/03/14 10:29:00;;;;;;;12.63;9.75;;;10.20;99.90;;;;;;5057491;28;20090;-69
2022/03/14 10:31:35;;;;;;;15.50;10.55;;;10.20;99.90;;;;;;5054742;28;20128;-68
2022/03/14 10:34:07;;;;;;;18.13;9.73;;;10.20;99.90;;;;;;5052510;28;20051;-68
2022/03/14 10:36:42;;;;;;;13.02;9.05;;;10.20;99.90;;;;;;5052044;28;20296;-68
2022/03/14 10:39:34;;;;;;;12.35;9.10;;;10.30;99.90;;;;;;5067437;28;20100;-68
2022/03/14 10:42:05;;;;;;;14.50;9.43;;;10.40;99.90;;;;;;5052714;28;20143;-68
2022/03/14 10:44:32;;;;;;;15.32;8.30;;;10.40;99.90;;;;;;5057522;28;20071;-68
2022/03/14 10:46:59;;;;;;;12.02;7.75;;;10.50;99.90;;;;;;5056071;28;20033;-68
2022/03/14 10:49:29;;;;;;;11.70;7.85;;;10.50;99.90;;;;;;5055737;28;20159;-68
2022/03/14 10:52:07;;;;;;;16.88;8.00;;;10.60;99.90;;;;;;5040643;28;20055;-68
2022/03/14 10:54:36;;;;;;;13.27;7.18;;;10.70;99.90;;;;;;5042259;28;20055;-69
2022/03/14 10:57:05;;;;;;;13.50;7.38;;;10.70;99.90;;;;;;5048247;28;20040;-68
2022/03/14 10:59:39;;;;;;;16.77;8.25;;;10.80;99.90;;;;;;5045859;28;22020;-68
2022/03/14 11:02:07;;;;;;;9.18;6.28;;;10.80;99.90;;;;;;5042797;28;20175;-68
2022/03/14 11:04:50;;;;;;;10.35;6.68;;;10.80;99.90;;;;;;5040512;28;20036;-68
2022/03/14 11:07:19;;;;;;;12.02;5.97;;;10.90;99.90;;;;;;5050332;28;20856;-68
2022/03/14 11:09:50;;;;;;;10.68;5.43;;;10.90;99.90;;;;;;5030115;28;20044;-68
2022/03/14 11:12:22;;;;;;;8.70;5.00;;;10.90;99.90;;;;;;5047273;28;20056;-68
2022/03/14 11:15:02;;;;;;;10.32;5.15;;;10.90;99.90;;;;;;5044682;28;20175;-69
2022/03/14 11:17:30;;;;;;;13.00;5.53;;;10.90;99.90;;;;;;5045805;28;20137;-68
2022/03/14 11:19:58;;;;;;;12.23;6.45;;;10.80;99.90;;;;;;5047570;28;20124;-68
2022/03/14 11:22:26;;;;;;;15.75;7.95;;;10.80;99.90;;;;;;5045654;28;20063;-69
2022/03/14 11:24:54;;;;;;;15.07;9.38;;;10.70;99.90;;;;;;5045973;28;20048;-68
2022/03/14 11:27:34;;;;;;;16.48;9.60;;;10.70;99.90;;;;;;5045306;28;20040;-68
2022/03/14 11:30:08;;;;;;;19.13;10.90;;;10.60;99.90;;;;;;5059292;28;20037;-68
2022/03/14 11:32:36;;;;;;;19.52;10.98;;;10.70;99.90;;;;;;5059861;28;20122;-68
2022/03/14 11:35:04;;;;;;;20.73;12.55;;;10.70;99.90;;;;;;5063046;28;20040;-68
2022/03/14 11:37:31;;;;;;;18.98;12.18;;;10.70;99.90;;;;;;5068969;28;20044;-68
2022/03/14 11:40:03;;;;;;;20.98;13.00;;;10.70;99.90;;;;;;5062997;28;20048;-68
2022/03/14 11:42:28;;;;;;;19.60;13.90;;;10.70;99.90;;;;;;5062506;28;20513;-68
2022/03/14 11:44:55;;;;;;;17.27;12.50;;;10.70;99.90;;;;;;5062862;28;20048;-68
2022/03/14 11:47:23;;;;;;;15.95;11.95;;;10.80;99.90;;;;;;5060824;28;20742;-68
2022/03/14 11:49:49;;;;;;;18.00;10.95;;;10.80;99.90;;;;;;5060945;28;20086;-68
2022/03/14 11:52:38;;;;;;;14.88;9.85;;;10.80;99.90;;;;;;5063995;28;20436;-68
2022/03/14 11:55:16;;;;;;;18.13;9.85;;;10.80;99.90;;;;;;5065535;28;20592;-68
2022/03/14 11:57:44;;;;;;;11.90;9.68;;;10.80;99.90;;;;;;5063536;28;20115;-68
2022/03/14 12:00:24;;;;;;;22.25;11.55;;;10.80;99.90;;;;;;5064752;28;20045;-69
2022/03/14 12:03:01;;;;;;;13.15;10.00;;;10.70;99.90;;;;;;5064138;28;20041;-68
2022/03/14 12:05:35;;;;;;;17.60;10.77;;;10.70;99.90;;;;;;5062704;28;20050;-68
2022/03/14 12:08:13;;;;;;;14.55;10.02;;;10.80;99.90;;;;;;5061129;28;20486;-68
2022/03/14 12:10:39;;;;;;;15.60;11.48;;;10.80;99.90;;;;;;5066191;28;20040;-68
2022/03/14 12:13:05;;;;;;;12.32;10.98;;;10.90;99.90;;;;;;5061729;28;21639;-68
2022/03/14 12:15:41;;;;;;;13.73;11.20;;;10.90;99.90;;;;;;5065179;28;20040;-68
2022/03/14 12:18:27;;;;;;;15.05;11.70;;;10.90;99.90;;;;;;5064069;28;20076;-68
2022/03/14 12:20:59;;;;;;;16.48;11.60;;;10.90;99.90;;;;;;5065900;28;20474;-69
2022/03/14 12:23:27;;;;;;;20.40;12.40;;;11.00;99.90;;;;;;5066302;28;20033;-69
2022/03/14 12:25:54;;;;;;;15.23;12.63;;;11.10;99.90;;;;;;5063645;28;20094;-69
2022/03/14 12:28:36;;;;;;;20.85;13.82;;;11.10;99.90;;;;;;5065626;28;20056;-69
2022/03/14 12:31:04;;;;;;;17.13;12.88;;;11.20;99.90;;;;;;5067474;28;20414;-69
2022/03/14 12:33:35;;;;;;;19.42;13.85;;;11.30;99.90;;;;;;5064294;28;20055;-69
2022/03/14 12:36:24;;;;;;;19.08;14.45;;;11.40;99.90;;;;;;5064084;28;20040;-69
2022/03/14 12:39:12;;;;;;;19.33;14.05;;;11.50;99.90;;;;;;5054485;28;20056;-69
2022/03/14 12:41:43;;;;;;;22.38;13.00;;;11.70;99.90;;;;;;5066638;28;20058;-69
2022/03/14 12:44:27;;;;;;;17.88;13.30;;;11.80;99.90;;;;;;5067327;28;20083;-69
2022/03/14 12:46:56;;;;;;;16.63;12.70;;;11.90;99.90;;;;;;5064457;28;20040;-69
2022/03/14 12:49:40;;;;;;;19.40;14.00;;;12.00;99.90;;;;;;5048181;28;20036;-69
2022/03/14 12:52:16;;;;;;;17.83;14.32;;;12.10;99.90;;;;;;5064125;28;20044;-69